sensor_id;sensor_type;location;lat;lon;timestamp;pressure;altitude;pressure_sealevel;temperature;humidity
17362;BME280;8798;51.938;4.348;2022-07-23T00:00:56;101641.19;;;18.94;69.95
17362;BME280;8798;51.938;4.348;2022-07-23T00:03:23;101644.13;;;18.92;70.04
17362;BME280;8798;51.938;4.348;2022-07-23T00:05:51;101644.97;;;18.93;70.23
17362;BME280;8798;51.938;4.348;2022-07-23T00:08:19;101645.97;;;18.91;70.17
17362;BME280;8798;51.938;4.348;2022-07-23T00:10:47;101648.69;;;18.91;70.21
17362;BME280;8798;51.938;4.348;2022-07-23T00:13:16;101656.88;;;18.91;70.15
17362;BME280;8798;51.938;4.348;2022-07-23T00:15:44;101656.03;;;18.91;70.21
17362;BME280;8798;51.938;4.348;2022-07-23T00:18:11;101641.97;;;18.87;69.91
17362;BME280;8798;51.938;4.348;2022-07-23T00:20:39;101640.44;;;18.85;69.79
17362;BME280;8798;51.938;4.348;2022-07-23T00:23:07;101635.38;;;18.82;69.80
17362;BME280;8798;51.938;4.348;2022-07-23T00:25:35;101638.09;;;18.82;70.05
17362;BME280;8798;51.938;4.348;2022-07-23T00:28:03;101639.97;;;18.81;69.94
17362;BME280;8798;51.938;4.348;2022-07-23T00:30:33;101642.69;;;18.81;69.65
17362;BME280;8798;51.938;4.348;2022-07-23T00:33:03;101660.72;;;18.82;69.95
17362;BME280;8798;51.938;4.348;2022-07-23T00:35:33;101657.16;;;18.82;69.87
17362;BME280;8798;51.938;4.348;2022-07-23T00:38:02;101658.00;;;18.82;69.87
17362;BME280;8798;51.938;4.348;2022-07-23T00:40:33;101668.22;;;18.80;69.86
17362;BME280;8798;51.938;4.348;2022-07-23T00:43:01;101660.06;;;18.80;69.91
17362;BME280;8798;51.938;4.348;2022-07-23T00:45:29;101669.06;;;18.81;69.94
17362;BME280;8798;51.938;4.348;2022-07-23T00:47:59;101655.66;;;18.79;69.60
17362;BME280;8798;51.938;4.348;2022-07-23T00:50:27;101663.84;;;18.79;69.52
17362;BME280;8798;51.938;4.348;2022-07-23T00:52:55;101660.44;;;18.77;69.87
17362;BME280;8798;51.938;4.348;2022-07-23T00:55:23;101658.03;;;18.74;69.56
17362;BME280;8798;51.938;4.348;2022-07-23T00:57:52;101647.16;;;18.74;69.74
17362;BME280;8798;51.938;4.348;2022-07-23T01:00:21;101645.66;;;18.72;69.82
17362;BME280;8798;51.938;4.348;2022-07-23T01:02:49;101635.97;;;18.69;69.55
17362;BME280;8798;51.938;4.348;2022-07-23T01:05:19;101627.34;;;18.65;69.79
17362;BME280;8798;51.938;4.348;2022-07-23T01:07:49;101617.84;;;18.61;69.49
17362;BME280;8798;51.938;4.348;2022-07-23T01:10:21;101612.97;;;18.57;69.84
17362;BME280;8798;51.938;4.348;2022-07-23T01:12:59;101578.34;;;18.51;69.62
17362;BME280;8798;51.938;4.348;2022-07-23T01:15:27;101575.13;;;18.47;69.55
17362;BME280;8798;51.938;4.348;2022-07-23T01:21:38;101508.69;;;18.26;69.83
17362;BME280;8798;51.938;4.348;2022-07-23T01:24:09;101489.19;;;18.23;69.40
17362;BME280;8798;51.938;4.348;2022-07-23T01:26:37;101475.31;;;18.18;69.78
17362;BME280;8798;51.938;4.348;2022-07-23T01:29:05;101465.00;;;18.13;69.90
17362;BME280;8798;51.938;4.348;2022-07-23T01:31:33;101456.34;;;18.10;69.48
17362;BME280;8798;51.938;4.348;2022-07-23T01:34:01;101449.63;;;18.05;69.68
17362;BME280;8798;51.938;4.348;2022-07-23T01:36:29;101442.84;;;18.01;69.80
17362;BME280;8798;51.938;4.348;2022-07-23T01:38:57;101425.22;;;17.97;70.05
17362;BME280;8798;51.938;4.348;2022-07-23T01:41:26;101418.47;;;17.93;70.08
17362;BME280;8798;51.938;4.348;2022-07-23T01:43:54;101426.81;;;17.92;69.83
17362;BME280;8798;51.938;4.348;2022-07-23T01:46:22;101415.47;;;17.88;69.71
17362;BME280;8798;51.938;4.348;2022-07-23T01:48:50;101413.09;;;17.85;70.15
17362;BME280;8798;51.938;4.348;2022-07-23T01:51:18;101410.75;;;17.82;70.27
17362;BME280;8798;51.938;4.348;2022-07-23T01:53:46;101406.38;;;17.81;69.81
17362;BME280;8798;51.938;4.348;2022-07-23T01:56:13;101412.81;;;17.80;69.96
17362;BME280;8798;51.938;4.348;2022-07-23T01:58:43;101423.69;;;17.80;70.01
17362;BME280;8798;51.938;4.348;2022-07-23T02:01:10;101425.75;;;17.78;70.03
17362;BME280;8798;51.938;4.348;2022-07-23T02:03:38;101420.47;;;17.76;70.15
17362;BME280;8798;51.938;4.348;2022-07-23T02:06:06;101422.53;;;17.74;70.24
17362;BME280;8798;51.938;4.348;2022-07-23T02:08:34;101419.97;;;17.73;70.10
17362;BME280;8798;51.938;4.348;2022-07-23T02:11:02;101422.06;;;17.71;70.43
17362;BME280;8798;51.938;4.348;2022-07-23T02:13:29;101425.78;;;17.70;70.35
17362;BME280;8798;51.938;4.348;2022-07-23T02:16:01;101422.41;;;17.68;70.04
17362;BME280;8798;51.938;4.348;2022-07-23T02:18:29;101414.84;;;17.63;70.14
17362;BME280;8798;51.938;4.348;2022-07-23T02:20:56;101417.72;;;17.61;70.41
17362;BME280;8798;51.938;4.348;2022-07-23T02:23:24;101416.03;;;17.60;70.20
17362;BME280;8798;51.938;4.348;2022-07-23T02:25:52;101413.69;;;17.57;70.48
17362;BME280;8798;51.938;4.348;2022-07-23T02:28:20;101421.00;;;17.57;70.35
17362;BME280;8798;51.938;4.348;2022-07-23T02:30:47;101430.00;;;17.57;70.48
17362;BME280;8798;51.938;4.348;2022-07-23T02:33:16;101440.03;;;17.57;70.48
17362;BME280;8798;51.938;4.348;2022-07-23T02:35:44;101440.03;;;17.57;70.80
17362;BME280;8798;51.938;4.348;2022-07-23T02:38:12;101443.94;;;17.54;71.02
17362;BME280;8798;51.938;4.348;2022-07-23T02:40:40;101446.00;;;17.52;70.52
17362;BME280;8798;51.938;4.348;2022-07-23T02:43:07;101441.78;;;17.50;70.70
17362;BME280;8798;51.938;4.348;2022-07-23T02:45:35;101444.50;;;17.50;70.65
17362;BME280;8798;51.938;4.348;2022-07-23T02:48:03;101449.25;;;17.48;70.70
17362;BME280;8798;51.938;4.348;2022-07-23T02:50:32;101441.47;;;17.45;70.38
17362;BME280;8798;51.938;4.348;2022-07-23T02:53:00;101432.66;;;17.42;70.61
17362;BME280;8798;51.938;4.348;2022-07-23T02:55:28;101437.44;;;17.40;70.65
17362;BME280;8798;51.938;4.348;2022-07-23T02:57:57;101435.06;;;17.37;70.72
17362;BME280;8798;51.938;4.348;2022-07-23T03:00:25;101442.38;;;17.37;70.70
17362;BME280;8798;51.938;4.348;2022-07-23T03:02:53;101439.00;;;17.35;70.69
17362;BME280;8798;51.938;4.348;2022-07-23T03:05:20;101426.81;;;17.31;70.82
17362;BME280;8798;51.938;4.348;2022-07-23T03:07:49;101425.13;;;17.30;70.82
17362;BME280;8798;51.938;4.348;2022-07-23T03:10:17;101430.94;;;17.27;70.85
17362;BME280;8798;51.938;4.348;2022-07-23T03:12:45;101418.72;;;17.23;70.73
17362;BME280;8798;51.938;4.348;2022-07-23T03:15:13;101417.06;;;17.22;70.80
17362;BME280;8798;51.938;4.348;2022-07-23T03:17:41;101418.25;;;17.19;71.06
17362;BME280;8798;51.938;4.348;2022-07-23T03:20:09;101429.97;;;17.19;70.94
17362;BME280;8798;51.938;4.348;2022-07-23T03:22:37;101425.56;;;17.18;71.05
17362;BME280;8798;51.938;4.348;2022-07-23T03:25:08;101434.72;;;17.17;71.05
17362;BME280;8798;51.938;4.348;2022-07-23T03:27:36;101443.91;;;17.16;71.17
17362;BME280;8798;51.938;4.348;2022-07-23T03:30:05;101450.19;;;17.17;70.99
17362;BME280;8798;51.938;4.348;2022-07-23T03:32:33;101450.19;;;17.17;71.26
17362;BME280;8798;51.938;4.348;2022-07-23T03:35:00;101453.25;;;17.14;71.29
17362;BME280;8798;51.938;4.348;2022-07-23T03:37:28;101448.84;;;17.13;71.21
17362;BME280;8798;51.938;4.348;2022-07-23T03:39:56;101458.84;;;17.12;71.18
17362;BME280;8798;51.938;4.348;2022-07-23T03:42:26;101472.44;;;17.12;71.08
17362;BME280;8798;51.938;4.348;2022-07-23T03:44:55;101484.13;;;17.13;71.37
17362;BME280;8798;51.938;4.348;2022-07-23T03:47:28;101490.41;;;17.13;71.26
17362;BME280;8798;51.938;4.348;2022-07-23T03:49:56;101514.50;;;17.16;71.30
17362;BME280;8798;51.938;4.348;2022-07-23T03:52:23;101527.72;;;17.19;71.25
17362;BME280;8798;51.938;4.348;2022-07-23T03:54:51;101548.22;;;17.22;71.23
17362;BME280;8798;51.938;4.348;2022-07-23T03:57:19;101573.16;;;17.26;71.39
17362;BME280;8798;51.938;4.348;2022-07-23T03:59:48;101587.41;;;17.28;71.53
17362;BME280;8798;51.938;4.348;2022-07-23T04:02:16;101595.56;;;17.28;71.35
17362;BME280;8798;51.938;4.348;2022-07-23T04:04:44;101611.47;;;17.31;71.41
17362;BME280;8798;51.938;4.348;2022-07-23T04:07:11;101622.03;;;17.34;71.42
17362;BME280;8798;51.938;4.348;2022-07-23T04:09:39;101621.34;;;17.32;71.60
17362;BME280;8798;51.938;4.348;2022-07-23T04:12:12;101613.34;;;17.30;71.56
17362;BME280;8798;51.938;4.348;2022-07-23T04:14:39;101593.19;;;17.25;71.33
17362;BME280;8798;51.938;4.348;2022-07-23T04:17:08;101597.28;;;17.20;71.61
17362;BME280;8798;51.938;4.348;2022-07-23T04:19:36;101593.06;;;17.18;71.78
17362;BME280;8798;51.938;4.348;2022-07-23T04:22:07;101593.06;;;17.18;71.49
17362;BME280;8798;51.938;4.348;2022-07-23T04:24:35;101597.63;;;17.17;71.80
17362;BME280;8798;51.938;4.348;2022-07-23T04:27:03;101602.22;;;17.17;71.70
17362;BME280;8798;51.938;4.348;2022-07-23T04:29:31;101608.50;;;17.17;71.82
17362;BME280;8798;51.938;4.348;2022-07-23T04:31:59;101623.78;;;17.18;71.58
17362;BME280;8798;51.938;4.348;2022-07-23T04:34:28;101626.50;;;17.18;71.78
17362;BME280;8798;51.938;4.348;2022-07-23T04:37:01;101642.59;;;17.20;71.79
17362;BME280;8798;51.938;4.348;2022-07-23T04:39:29;101643.28;;;17.22;71.98
17362;BME280;8798;51.938;4.348;2022-07-23T04:41:57;101637.38;;;17.18;71.70
17362;BME280;8798;51.938;4.348;2022-07-23T04:44:24;101646.34;;;17.19;71.69
17362;BME280;8798;51.938;4.348;2022-07-23T04:46:52;101652.63;;;17.19;71.93
17362;BME280;8798;51.938;4.348;2022-07-23T04:49:21;101668.56;;;17.23;72.02
17362;BME280;8798;51.938;4.348;2022-07-23T04:51:50;101691.81;;;17.25;71.91
17362;BME280;8798;51.938;4.348;2022-07-23T04:54:18;101703.00;;;17.30;72.22
17362;BME280;8798;51.938;4.348;2022-07-23T04:56:46;101725.03;;;17.35;72.00
17362;BME280;8798;51.938;4.348;2022-07-23T04:59:13;101752.88;;;17.37;72.35
17362;BME280;8798;51.938;4.348;2022-07-23T05:01:41;101768.66;;;17.42;72.32
17362;BME280;8798;51.938;4.348;2022-07-23T05:04:09;101794.28;;;17.48;72.20
17362;BME280;8798;51.938;4.348;2022-07-23T05:06:38;101820.09;;;17.52;71.84
17362;BME280;8798;51.938;4.348;2022-07-23T05:09:07;101838.41;;;17.58;71.97
17362;BME280;8798;51.938;4.348;2022-07-23T05:11:35;101850.78;;;17.60;72.28
17362;BME280;8798;51.938;4.348;2022-07-23T05:14:02;101857.09;;;17.61;72.05
17362;BME280;8798;51.938;4.348;2022-07-23T05:16:30;101869.50;;;17.63;72.19
17362;BME280;8798;51.938;4.348;2022-07-23T05:18:58;101901.41;;;17.70;72.17
17362;BME280;8798;51.938;4.348;2022-07-23T05:21:26;101928.75;;;17.76;72.30
17362;BME280;8798;51.938;4.348;2022-07-23T05:23:54;101941.13;;;17.79;72.69
17362;BME280;8798;51.938;4.348;2022-07-23T05:26:23;101951.53;;;17.83;72.30
17362;BME280;8798;51.938;4.348;2022-07-23T05:28:51;101964.09;;;17.84;72.32
17362;BME280;8798;51.938;4.348;2022-07-23T05:31:19;101971.72;;;17.89;72.53
17362;BME280;8798;51.938;4.348;2022-07-23T05:33:47;102001.13;;;17.94;72.37
17362;BME280;8798;51.938;4.348;2022-07-23T05:36:15;102025.94;;;17.99;72.48
17362;BME280;8798;51.938;4.348;2022-07-23T05:38:43;102039.03;;;18.03;72.35
17362;BME280;8798;51.938;4.348;2022-07-23T05:41:10;102058.56;;;18.07;72.47
17362;BME280;8798;51.938;4.348;2022-07-23T05:43:40;102065.50;;;18.10;72.41
17362;BME280;8798;51.938;4.348;2022-07-23T05:46:08;102076.06;;;18.13;72.38
17362;BME280;8798;51.938;4.348;2022-07-23T05:48:36;102084.88;;;18.15;72.48
17362;BME280;8798;51.938;4.348;2022-07-23T05:51:04;102080.13;;;18.17;72.39
17362;BME280;8798;51.938;4.348;2022-07-23T05:53:33;102084.56;;;18.18;72.61
17362;BME280;8798;51.938;4.348;2022-07-23T05:56:02;102094.41;;;18.19;72.16
17362;BME280;8798;51.938;4.348;2022-07-23T05:58:30;102100.53;;;18.21;72.25
17362;BME280;8798;51.938;4.348;2022-07-23T06:00:59;102107.50;;;18.23;72.45
17362;BME280;8798;51.938;4.348;2022-07-23T06:03:26;102109.03;;;18.26;72.15
17362;BME280;8798;51.938;4.348;2022-07-23T06:05:54;102139.31;;;18.31;72.40
17362;BME280;8798;51.938;4.348;2022-07-23T06:08:22;102142.53;;;18.35;72.33
17362;BME280;8798;51.938;4.348;2022-07-23T06:10:50;102167.38;;;18.40;72.25
17362;BME280;8798;51.938;4.348;2022-07-23T06:13:18;102181.47;;;18.43;72.16
17362;BME280;8798;51.938;4.348;2022-07-23T06:15:46;102192.00;;;18.46;72.45
17362;BME280;8798;51.938;4.348;2022-07-23T06:18:16;102201.53;;;18.51;71.81
17362;BME280;8798;51.938;4.348;2022-07-23T06:20:43;102227.06;;;18.58;71.94
17362;BME280;8798;51.938;4.348;2022-07-23T06:23:16;102234.03;;;18.60;71.99
17362;BME280;8798;51.938;4.348;2022-07-23T06:25:43;102239.97;;;18.64;71.91
17362;BME280;8798;51.938;4.348;2022-07-23T06:28:11;102247.63;;;18.68;71.71
17362;BME280;8798;51.938;4.348;2022-07-23T06:30:39;102270.78;;;18.73;72.04
17362;BME280;8798;51.938;4.348;2022-07-23T06:33:07;102282.88;;;18.78;71.76
17362;BME280;8798;51.938;4.348;2022-07-23T06:35:36;102290.72;;;18.81;71.81
17362;BME280;8798;51.938;4.348;2022-07-23T06:38:04;102296.84;;;18.83;71.84
17362;BME280;8798;51.938;4.348;2022-07-23T06:40:33;102322.38;;;18.90;71.68
17362;BME280;8798;51.938;4.348;2022-07-23T06:43:01;102338.72;;;18.99;71.66
17362;BME280;8798;51.938;4.348;2022-07-23T06:45:29;102365.28;;;19.05;71.54
17362;BME280;8798;51.938;4.348;2022-07-23T06:47:57;102390.63;;;19.13;71.41
17362;BME280;8798;51.938;4.348;2022-07-23T06:50:25;102423.34;;;19.22;71.18
17362;BME280;8798;51.938;4.348;2022-07-23T06:52:54;102454.84;;;19.32;71.18
17362;BME280;8798;51.938;4.348;2022-07-23T06:55:22;102484.81;;;19.41;70.90
17362;BME280;8798;51.938;4.348;2022-07-23T06:57:50;102512.97;;;19.49;70.95
17362;BME280;8798;51.938;4.348;2022-07-23T07:00:18;102526.94;;;19.54;70.86
17362;BME280;8798;51.938;4.348;2022-07-23T07:02:46;102543.47;;;19.61;70.88
17362;BME280;8798;51.938;4.348;2022-07-23T07:05:14;102562.75;;;19.68;70.52
17362;BME280;8798;51.938;4.348;2022-07-23T07:07:41;102570.25;;;19.74;70.38
17362;BME280;8798;51.938;4.348;2022-07-23T07:10:10;102567.34;;;19.75;70.42
17362;BME280;8798;51.938;4.348;2022-07-23T07:12:41;102568.03;;;19.77;70.37
17362;BME280;8798;51.938;4.348;2022-07-23T07:15:09;102571.44;;;19.80;70.26
17362;BME280;8798;51.938;4.348;2022-07-23T07:17:38;102560.38;;;19.81;70.00
17362;BME280;8798;51.938;4.348;2022-07-23T07:20:06;102563.13;;;19.81;70.16
17362;BME280;8798;51.938;4.348;2022-07-23T07:22:34;102551.16;;;19.82;70.02
17362;BME280;8798;51.938;4.348;2022-07-23T07:25:02;102529.53;;;19.81;69.69
17362;BME280;8798;51.938;4.348;2022-07-23T07:27:31;102509.56;;;19.80;69.87
17362;BME280;8798;51.938;4.348;2022-07-23T07:29:59;102497.13;;;19.77;69.60
17362;BME280;8798;51.938;4.348;2022-07-23T07:32:27;102479.06;;;19.76;69.43
17362;BME280;8798;51.938;4.348;2022-07-23T07:35:15;102464.75;;;19.74;69.39
17362;BME280;8798;51.938;4.348;2022-07-23T07:37:43;102437.00;;;19.71;69.28
17362;BME280;8798;51.938;4.348;2022-07-23T07:40:11;102419.94;;;19.69;69.36
17362;BME280;8798;51.938;4.348;2022-07-23T07:42:45;102398.59;;;19.64;69.20
17362;BME280;8798;51.938;4.348;2022-07-23T07:45:13;102374.59;;;19.60;69.23
17362;BME280;8798;51.938;4.348;2022-07-23T07:47:42;102354.81;;;19.58;69.01
17362;BME280;8798;51.938;4.348;2022-07-23T07:50:10;102352.94;;;19.58;68.63
17362;BME280;8798;51.938;4.348;2022-07-23T07:52:38;102350.03;;;19.60;69.11
17362;BME280;8798;51.938;4.348;2022-07-23T07:55:07;102368.78;;;19.63;68.68
17362;BME280;8798;51.938;4.348;2022-07-23T07:57:36;102372.75;;;19.68;68.50
17362;BME280;8798;51.938;4.348;2022-07-23T08:00:08;102372.75;;;19.68;68.73
17362;BME280;8798;51.938;4.348;2022-07-23T08:02:44;102373.38;;;19.70;68.37
17362;BME280;8798;51.938;4.348;2022-07-23T08:05:12;102382.94;;;19.74;68.55
17362;BME280;8798;51.938;4.348;2022-07-23T08:07:41;102381.72;;;19.77;68.23
17362;BME280;8798;51.938;4.348;2022-07-23T08:10:09;102382.56;;;19.77;68.37
17362;BME280;8798;51.938;4.348;2022-07-23T08:12:38;102372.72;;;19.76;68.30
17362;BME280;8798;51.938;4.348;2022-07-23T08:15:09;102371.66;;;19.77;68.49
17362;BME280;8798;51.938;4.348;2022-07-23T08:17:40;102382.25;;;19.81;68.22
17362;BME280;8798;51.938;4.348;2022-07-23T08:20:09;102384.63;;;19.84;67.88
17362;BME280;8798;51.938;4.348;2022-07-23T08:22:45;102395.00;;;19.88;67.88
17362;BME280;8798;51.938;4.348;2022-07-23T08:25:14;102421.41;;;19.96;67.86
17362;BME280;8798;51.938;4.348;2022-07-23T08:27:42;102442.38;;;20.04;67.67
17362;BME280;8798;51.938;4.348;2022-07-23T08:30:12;102472.34;;;20.12;67.54
17362;BME280;8798;51.938;4.348;2022-07-23T08:32:54;102507.63;;;20.22;67.34
17362;BME280;8798;51.938;4.348;2022-07-23T08:35:24;102516.97;;;20.27;67.30
17362;BME280;8798;51.938;4.348;2022-07-23T08:37:52;102529.28;;;20.31;67.23
17362;BME280;8798;51.938;4.348;2022-07-23T08:40:20;102543.09;;;20.38;66.93
17362;BME280;8798;51.938;4.348;2022-07-23T08:42:49;102548.19;;;20.41;67.10
17362;BME280;8798;51.938;4.348;2022-07-23T08:45:20;102548.88;;;20.43;67.18
17362;BME280;8798;51.938;4.348;2022-07-23T08:47:49;102537.94;;;20.43;66.83
17362;BME280;8798;51.938;4.348;2022-07-23T08:50:19;102546.63;;;20.47;66.60
17362;BME280;8798;51.938;4.348;2022-07-23T08:52:48;102540.16;;;20.48;66.59
17362;BME280;8798;51.938;4.348;2022-07-23T08:55:17;102524.78;;;20.47;66.40
17362;BME280;8798;51.938;4.348;2022-07-23T08:57:47;102520.16;;;20.47;66.30
17362;BME280;8798;51.938;4.348;2022-07-23T09:00:16;102528.88;;;20.51;65.99
17362;BME280;8798;51.938;4.348;2022-07-23T09:02:46;102533.00;;;20.55;66.10
17362;BME280;8798;51.938;4.348;2022-07-23T09:05:15;102551.41;;;20.61;66.09
17362;BME280;8798;51.938;4.348;2022-07-23T09:08:06;102566.41;;;20.65;65.82
17362;BME280;8798;51.938;4.348;2022-07-23T09:10:47;102561.59;;;20.67;65.90
17362;BME280;8798;51.938;4.348;2022-07-23T09:13:39;102569.28;;;20.72;65.74
17362;BME280;8798;51.938;4.348;2022-07-23T09:16:10;102570.16;;;20.72;65.53
17362;BME280;8798;51.938;4.348;2022-07-23T09:18:44;102542.16;;;20.70;65.60
17362;BME280;8798;51.938;4.348;2022-07-23T09:21:23;102540.25;;;20.71;65.91
17362;BME280;8798;51.938;4.348;2022-07-23T09:23:56;102540.94;;;20.73;65.05
17362;BME280;8798;51.938;4.348;2022-07-23T09:26:32;102543.31;;;20.76;65.21
17362;BME280;8798;51.938;4.348;2022-07-23T09:29:12;102552.66;;;20.81;65.02
17362;BME280;8798;51.938;4.348;2022-07-23T09:31:49;102576.38;;;20.89;65.10
17362;BME280;8798;51.938;4.348;2022-07-23T09:34:20;102585.09;;;20.93;64.59
17362;BME280;8798;51.938;4.348;2022-07-23T09:36:51;102593.59;;;20.98;64.62
17362;BME280;8798;51.938;4.348;2022-07-23T09:39:26;102607.56;;;21.03;64.71
17362;BME280;8798;51.938;4.348;2022-07-23T09:41:54;102608.94;;;21.07;64.65
17362;BME280;8798;51.938;4.348;2022-07-23T09:44:22;102626.66;;;21.11;64.63
17362;BME280;8798;51.938;4.348;2022-07-23T09:46:58;102630.91;;;21.14;64.58
17362;BME280;8798;51.938;4.348;2022-07-23T09:49:27;102637.59;;;21.19;64.28
17362;BME280;8798;51.938;4.348;2022-07-23T09:51:58;102628.34;;;21.20;64.16
17362;BME280;8798;51.938;4.348;2022-07-23T09:54:30;102643.84;;;21.28;64.28
17362;BME280;8798;51.938;4.348;2022-07-23T09:57:00;102686.38;;;21.39;64.14
17362;BME280;8798;51.938;4.348;2022-07-23T09:59:30;102700.19;;;21.45;63.78
17362;BME280;8798;51.938;4.348;2022-07-23T10:02:00;102713.34;;;21.50;63.87
17362;BME280;8798;51.938;4.348;2022-07-23T10:04:30;102719.28;;;21.54;63.96
17362;BME280;8798;51.938;4.348;2022-07-23T10:07:01;102725.75;;;21.61;63.68
17362;BME280;8798;51.938;4.348;2022-07-23T10:09:31;102743.34;;;21.66;63.17
17362;BME280;8798;51.938;4.348;2022-07-23T10:12:02;102740.63;;;21.66;63.27
17362;BME280;8798;51.938;4.348;2022-07-23T10:15:00;102721.47;;;21.66;62.79
17362;BME280;8798;51.938;4.348;2022-07-23T10:17:29;102725.53;;;21.71;63.30
17362;BME280;8798;51.938;4.348;2022-07-23T10:19:58;102739.53;;;21.76;62.98
17362;BME280;8798;51.938;4.348;2022-07-23T10:22:28;102751.66;;;21.81;63.22
17362;BME280;8798;51.938;4.348;2022-07-23T10:25:00;102743.25;;;21.83;63.16
17362;BME280;8798;51.938;4.348;2022-07-23T10:27:47;102728.72;;;21.82;63.02
17362;BME280;8798;51.938;4.348;2022-07-23T10:30:20;102722.88;;;21.85;63.01
17362;BME280;8798;51.938;4.348;2022-07-23T10:32:59;102751.25;;;21.93;62.81
17362;BME280;8798;51.938;4.348;2022-07-23T10:35:36;102762.31;;;21.99;62.53
17362;BME280;8798;51.938;4.348;2022-07-23T10:38:10;102779.75;;;22.06;62.74
17362;BME280;8798;51.938;4.348;2022-07-23T10:40:53;102792.88;;;22.11;62.64
17362;BME280;8798;51.938;4.348;2022-07-23T10:43:21;102788.75;;;22.15;62.18
17362;BME280;8798;51.938;4.348;2022-07-23T10:45:49;102801.03;;;22.19;62.21
17362;BME280;8798;51.938;4.348;2022-07-23T10:48:18;102808.75;;;22.24;62.00
17362;BME280;8798;51.938;4.348;2022-07-23T10:51:09;102806.31;;;22.29;62.30
17362;BME280;8798;51.938;4.348;2022-07-23T10:53:53;102800.69;;;22.30;62.39
17362;BME280;8798;51.938;4.348;2022-07-23T10:56:49;102817.41;;;22.36;62.25
17362;BME280;8798;51.938;4.348;2022-07-23T10:59:17;102808.81;;;22.39;61.58
17362;BME280;8798;51.938;4.348;2022-07-23T11:01:45;102812.91;;;22.43;61.66
17362;BME280;8798;51.938;4.348;2022-07-23T11:04:15;102819.72;;;22.47;61.56
17362;BME280;8798;51.938;4.348;2022-07-23T11:07:09;102836.97;;;22.56;61.50
17362;BME280;8798;51.938;4.348;2022-07-23T11:09:39;102855.22;;;22.63;61.95
17362;BME280;8798;51.938;4.348;2022-07-23T11:12:31;102890.63;;;22.73;61.92
17362;BME280;8798;51.938;4.348;2022-07-23T11:15:00;102887.34;;;22.78;61.85
17362;BME280;8798;51.938;4.348;2022-07-23T11:17:28;102891.22;;;22.83;61.70
17362;BME280;8798;51.938;4.348;2022-07-23T11:20:16;102910.53;;;22.90;61.72
17362;BME280;8798;51.938;4.348;2022-07-23T11:22:50;102923.38;;;22.98;60.96
17362;BME280;8798;51.938;4.348;2022-07-23T11:25:35;102946.06;;;23.06;61.21
17362;BME280;8798;51.938;4.348;2022-07-23T11:28:21;102981.09;;;23.19;61.01
17362;BME280;8798;51.938;4.348;2022-07-23T11:30:53;102977.13;;;23.22;61.25
17362;BME280;8798;51.938;4.348;2022-07-23T11:33:24;102965.16;;;23.23;60.97
17362;BME280;8798;51.938;4.348;2022-07-23T11:36:02;102952.13;;;23.25;60.59
17362;BME280;8798;51.938;4.348;2022-07-23T11:38:32;102918.69;;;23.21;60.35
17362;BME280;8798;51.938;4.348;2022-07-23T11:41:00;102906.72;;;23.22;60.10
17362;BME280;8798;51.938;4.348;2022-07-23T11:43:28;102923.25;;;23.29;60.63
17362;BME280;8798;51.938;4.348;2022-07-23T11:45:58;102949.59;;;23.38;60.06
17362;BME280;8798;51.938;4.348;2022-07-23T11:48:27;102976.38;;;23.51;60.34
17362;BME280;8798;51.938;4.348;2022-07-23T11:50:57;103022.41;;;23.64;59.97
17362;BME280;8798;51.938;4.348;2022-07-23T11:53:26;103037.09;;;23.71;60.24
17362;BME280;8798;51.938;4.348;2022-07-23T11:56:04;103077.50;;;23.85;59.71
17362;BME280;8798;51.938;4.348;2022-07-23T11:58:32;103117.88;;;23.99;59.90
17362;BME280;8798;51.938;4.348;2022-07-23T12:01:00;103144.25;;;24.09;59.44
17362;BME280;8798;51.938;4.348;2022-07-23T12:03:29;103123.28;;;24.08;59.67
17362;BME280;8798;51.938;4.348;2022-07-23T12:05:58;103078.22;;;24.02;59.64
17362;BME280;8798;51.938;4.348;2022-07-23T12:08:26;103060.50;;;24.04;59.56
17362;BME280;8798;51.938;4.348;2022-07-23T12:10:54;103073.31;;;24.12;59.43
17362;BME280;8798;51.938;4.348;2022-07-23T12:13:23;103098.81;;;24.21;59.28
17362;BME280;8798;51.938;4.348;2022-07-23T12:15:52;103115.88;;;24.31;59.32
17362;BME280;8798;51.938;4.348;2022-07-23T12:18:23;103118.91;;;24.36;58.92
17362;BME280;8798;51.938;4.348;2022-07-23T12:20:53;103089.06;;;24.33;58.94
17362;BME280;8798;51.938;4.348;2022-07-23T12:23:24;103057.13;;;24.32;58.43
17362;BME280;8798;51.938;4.348;2022-07-23T12:25:53;103083.47;;;24.41;58.55
17362;BME280;8798;51.938;4.348;2022-07-23T12:28:28;103107.75;;;24.53;58.77
17362;BME280;8798;51.938;4.348;2022-07-23T12:30:58;103128.63;;;24.62;58.50
17362;BME280;8798;51.938;4.348;2022-07-23T12:33:28;103139.50;;;24.70;58.27
17362;BME280;8798;51.938;4.348;2022-07-23T12:36:00;103123.91;;;24.71;58.12
17362;BME280;8798;51.938;4.348;2022-07-23T12:38:37;103095.72;;;24.68;58.13
17362;BME280;8798;51.938;4.348;2022-07-23T12:41:05;103114.88;;;24.77;57.79
17362;BME280;8798;51.938;4.348;2022-07-23T12:43:37;103126.63;;;24.85;57.78
17362;BME280;8798;51.938;4.348;2022-07-23T12:46:07;103123.09;;;24.92;57.58
17362;BME280;8798;51.938;4.348;2022-07-23T12:48:36;103125.47;;;24.95;57.42
17362;BME280;8798;51.938;4.348;2022-07-23T12:51:05;103121.97;;;25.01;57.43
17362;BME280;8798;51.938;4.348;2022-07-23T12:53:37;103136.66;;;25.08;57.09
17362;BME280;8798;51.938;4.348;2022-07-23T12:56:08;103115.31;;;25.10;57.04
17362;BME280;8798;51.938;4.348;2022-07-23T12:58:43;103123.84;;;25.15;56.72
17362;BME280;8798;51.938;4.348;2022-07-23T13:01:25;103114.16;;;25.19;56.48
17362;BME280;8798;51.938;4.348;2022-07-23T13:03:59;103126.09;;;25.26;56.32
17362;BME280;8798;51.938;4.348;2022-07-23T13:06:29;103128.09;;;25.33;55.93
17362;BME280;8798;51.938;4.348;2022-07-23T13:08:58;103130.06;;;25.39;55.99
17362;BME280;8798;51.938;4.348;2022-07-23T13:11:28;103144.56;;;25.47;56.40
17362;BME280;8798;51.938;4.348;2022-07-23T13:13:58;103173.47;;;25.58;55.79
17362;BME280;8798;51.938;4.348;2022-07-23T13:16:27;103202.38;;;25.69;55.80
17362;BME280;8798;51.938;4.348;2022-07-23T13:18:55;103217.56;;;25.80;55.46